createdAt,value
2019-06-07T00:00:38.094Z,83.96
2019-06-07T00:01:26.992Z,84.63
2019-06-07T00:02:27.014Z,84.72
2019-06-07T00:03:30.110Z,84.34
2019-06-07T00:04:27.056Z,84.44
2019-06-07T00:05:27.029Z,84.82
2019-06-07T00:06:27.031Z,84.72
2019-06-07T00:07:27.050Z,84.06
2019-06-07T00:08:28.985Z,84.72
2019-06-07T00:09:27.065Z,85.01
2019-06-07T00:10:35.917Z,84.82
2019-06-07T00:11:27.079Z,84.82
2019-06-07T00:12:27.090Z,85.49
2019-06-07T00:13:27.102Z,85.01
2019-06-07T00:14:27.109Z,85.21
2019-06-07T00:15:28.905Z,84.92
2019-06-07T00:16:27.127Z,84.53
2019-06-07T00:17:27.157Z,84.72
2019-06-07T00:18:27.145Z,84.82
2019-06-07T00:19:27.153Z,85.77
2019-06-07T00:20:27.164Z,84.53
2019-06-07T00:22:12.695Z,85.58
2019-06-07T00:22:33.039Z,85.30
2019-06-07T00:23:27.188Z,85.30
2019-06-07T00:24:27.198Z,85.21
2019-06-07T00:25:27.206Z,85.30
2019-06-07T00:26:27.219Z,85.39
2019-06-07T00:27:27.224Z,85.11
2019-06-07T00:28:27.238Z,85.21
2019-06-07T00:29:27.242Z,84.63
2019-06-07T00:30:42.386Z,83.96
2019-06-07T00:31:27.260Z,84.34
2019-06-07T00:32:27.273Z,84.53
2019-06-07T00:33:27.277Z,84.82
2019-06-07T00:34:27.284Z,85.21
2019-06-07T00:35:27.295Z,84.82
2019-06-07T00:36:27.310Z,84.78
2019-06-07T00:37:27.312Z,84.97
2019-06-07T00:38:27.321Z,84.53
2019-06-07T00:39:27.379Z,84.16
2019-06-07T00:40:31.995Z,84.82
2019-06-07T00:41:27.348Z,85.39
2019-06-07T00:42:27.374Z,85.01
2019-06-07T00:43:28.532Z,85.01
2019-06-07T00:44:27.386Z,84.53
2019-06-07T00:45:27.443Z,84.34
2019-06-07T00:46:27.396Z,84.53
2019-06-07T00:47:27.399Z,84.82
2019-06-07T00:48:32.574Z,85.11
2019-06-07T00:49:40.515Z,85.39
2019-06-07T00:50:27.426Z,85.06
2019-06-07T00:51:27.433Z,84.97
2019-06-07T00:53:13.952Z,85.35
2019-06-07T00:53:32.175Z,85.64
2019-06-07T00:54:27.458Z,85.45
2019-06-07T00:55:27.835Z,85.54
2019-06-07T00:56:27.476Z,85.16
2019-06-07T00:57:27.488Z,86.11
2019-06-07T00:58:29.455Z,85.93
2019-06-07T00:59:29.475Z,86.06
2019-06-07T01:00:27.510Z,86.73
2019-06-07T01:01:27.527Z,87.07
2019-06-07T01:02:31.200Z,86.88
2019-06-07T01:03:27.541Z,86.21
2019-06-07T01:04:27.556Z,86.35
2019-06-07T01:05:31.421Z,86.21
2019-06-07T01:06:27.564Z,85.93
2019-06-07T01:07:27.619Z,85.16
2019-06-07T01:08:30.050Z,85.64
2019-06-07T01:09:27.591Z,85.45
2019-06-07T01:10:51.766Z,86.21
2019-06-07T01:11:27.608Z,85.64
2019-06-07T01:12:27.619Z,86.30
2019-06-07T01:13:27.631Z,86.30
2019-06-07T01:14:28.727Z,86.02
2019-06-07T01:15:29.351Z,86.69
2019-06-07T01:16:27.652Z,86.59
2019-06-07T01:17:40.777Z,86.69
2019-06-07T01:18:39.071Z,87.07
2019-06-07T01:19:28.037Z,87.07
2019-06-07T01:20:27.697Z,87.16
2019-06-07T01:21:29.627Z,86.88
2019-06-07T01:22:29.469Z,86.78
2019-06-07T01:24:04.700Z,86.88
2019-06-07T01:24:28.186Z,87.16
2019-06-07T01:25:28.962Z,87.07
2019-06-07T01:26:30.236Z,86.30
2019-06-07T01:27:28.744Z,86.98
2019-06-07T01:28:29.969Z,86.88
2019-06-07T01:29:30.925Z,86.78
2019-06-07T01:30:29.358Z,86.11
2019-06-07T01:31:31.035Z,85.87
2019-06-07T01:32:31.504Z,86.16
2019-06-07T01:33:49.245Z,86.06
2019-06-07T01:34:28.887Z,85.87
2019-06-07T01:35:29.947Z,85.97
2019-06-07T01:36:29.475Z,86.21
2019-06-07T01:37:29.986Z,86.25
2019-06-07T01:38:30.098Z,87.11
2019-06-07T01:39:29.816Z,86.82
2019-06-07T01:40:32.301Z,86.92
2019-06-07T01:41:30.651Z,86.21
2019-06-07T01:42:30.496Z,85.97
2019-06-07T01:43:30.549Z,86.06
2019-06-07T01:44:30.323Z,85.83
2019-06-07T01:45:30.865Z,85.97
2019-06-07T01:46:28.758Z,85.97
2019-06-07T01:47:31.224Z,85.68
2019-06-07T01:48:48.172Z,85.97
2019-06-07T01:49:29.504Z,85.73
2019-06-07T01:50:29.765Z,87.16
2019-06-07T01:51:30.724Z,86.88
2019-06-07T01:52:29.569Z,86.40
2019-06-07T01:53:29.155Z,86.30
2019-06-07T01:54:52.085Z,86.40
2019-06-07T01:55:32.228Z,86.21
2019-06-07T01:56:29.827Z,86.40
2019-06-07T01:57:44.606Z,86.30
2019-06-07T01:58:29.251Z,87.16
2019-06-07T01:59:31.004Z,86.69
2019-06-07T02:00:31.523Z,86.98
2019-06-07T02:01:34.672Z,86.59
2019-06-07T02:02:30.058Z,86.49
2019-06-07T02:03:32.168Z,86.98
2019-06-07T02:04:32.441Z,86.98
2019-06-07T02:05:31.959Z,85.93
2019-06-07T02:06:32.056Z,85.73
2019-06-07T02:07:32.615Z,86.78
2019-06-07T02:08:34.001Z,86.88
2019-06-07T02:09:31.243Z,86.88
2019-06-07T02:10:32.641Z,86.69
2019-06-07T02:11:29.431Z,86.88
2019-06-07T02:12:40.192Z,86.78
2019-06-07T02:13:30.386Z,87.07
2019-06-07T02:14:30.624Z,87.16
2019-06-07T02:15:32.135Z,86.69
2019-06-07T02:16:31.988Z,86.88
2019-06-07T02:17:30.211Z,86.11
2019-06-07T02:18:32.587Z,86.88
2019-06-07T02:19:31.696Z,86.78
2019-06-07T02:20:31.875Z,87.16
2019-06-07T02:21:30.946Z,87.35
2019-06-07T02:22:32.085Z,87.35
2019-06-07T02:23:31.116Z,88.31
2019-06-07T02:24:29.623Z,88.31
2019-06-07T02:25:40.627Z,88.31
2019-06-07T02:26:32.159Z,87.93
2019-06-07T02:27:30.567Z,88.12
2019-06-07T02:28:38.430Z,88.12
2019-06-07T02:29:31.907Z,87.64
2019-06-07T02:30:44.073Z,87.35
2019-06-07T02:31:36.517Z,86.88
2019-06-07T02:32:31.731Z,87.16
2019-06-07T02:33:34.054Z,87.35
2019-06-07T02:34:35.872Z,87.64
2019-06-07T02:35:38.300Z,87.54
2019-06-07T02:36:35.180Z,87.35
2019-06-07T02:37:33.632Z,87.16
2019-06-07T02:38:32.614Z,87.07
2019-06-07T02:39:33.183Z,87.45
2019-06-07T02:40:36.006Z,87.07
2019-06-07T02:41:33.617Z,87.45
2019-06-07T02:42:30.800Z,87.35
2019-06-07T02:43:34.383Z,87.45
2019-06-07T02:44:32.333Z,86.98
2019-06-07T02:45:35.421Z,87.35
2019-06-07T02:46:38.045Z,87.64
2019-06-07T02:47:31.240Z,86.98
2019-06-07T02:48:34.353Z,86.98
2019-06-07T02:49:33.454Z,87.16
2019-06-07T02:50:33.961Z,87.16
2019-06-07T02:51:37.821Z,86.69
2019-06-07T02:52:33.496Z,86.69
2019-06-07T02:53:30.773Z,87.26
2019-06-07T02:54:30.870Z,87.45
2019-06-07T02:55:31.279Z,86.88
2019-06-07T02:56:41.899Z,86.59
2019-06-07T02:57:35.735Z,87.26
2019-06-07T02:58:32.507Z,86.30
2019-06-07T02:59:54.839Z,86.21
2019-06-07T03:00:50.709Z,86.78
2019-06-07T03:01:31.620Z,86.69
2019-06-07T03:02:32.814Z,87.35
2019-06-07T03:03:30.610Z,87.12
2019-06-07T03:04:29.493Z,87.12
2019-06-07T03:05:30.530Z,86.45
2019-06-07T03:06:33.256Z,86.26
2019-06-07T03:07:30.632Z,85.78
2019-06-07T03:08:30.438Z,86.65
2019-06-07T03:09:31.922Z,86.55
2019-06-07T03:10:30.256Z,87.45
2019-06-07T03:11:31.106Z,87.02
2019-06-07T03:12:30.902Z,87.31
2019-06-07T03:14:35.883Z,86.65
2019-06-07T03:16:36.787Z,85.97
2019-06-07T03:17:37.844Z,85.69
2019-06-07T03:18:34.385Z,85.60
2019-06-07T03:19:36.485Z,86.93
2019-06-07T03:20:34.515Z,87.12
2019-06-07T03:21:33.794Z,88.17
2019-06-07T03:22:38.019Z,88.21
2019-06-07T03:23:34.378Z,87.79
2019-06-07T03:24:35.238Z,87.12
2019-06-07T03:25:35.736Z,87.26
2019-06-07T03:26:42.442Z,86.69
2019-06-07T03:27:41.608Z,87.07
2019-06-07T03:28:36.134Z,86.21
2019-06-07T03:29:34.416Z,87.16
2019-06-07T03:30:44.413Z,87.16
2019-06-07T03:31:41.693Z,86.98
2019-06-07T03:32:38.588Z,86.78
2019-06-07T03:33:37.318Z,86.98
2019-06-07T03:34:40.485Z,86.49
2019-06-07T03:35:34.736Z,87.16
2019-06-07T03:36:37.175Z,86.78
2019-06-07T03:37:39.469Z,87.26
2019-06-07T03:38:34.797Z,87.16
2019-06-07T03:39:33.797Z,86.69
2019-06-07T03:40:36.908Z,86.78
2019-06-07T03:41:44.839Z,86.88
2019-06-07T03:42:34.789Z,86.02
2019-06-07T03:43:37.777Z,85.73
2019-06-07T03:44:35.776Z,86.21
2019-06-07T03:45:35.162Z,85.93
2019-06-07T03:46:35.168Z,86.02
2019-06-07T03:47:36.517Z,86.30
2019-06-07T03:48:35.681Z,86.21
2019-06-07T03:49:37.466Z,86.98
2019-06-07T03:50:36.030Z,87.07
2019-06-07T03:51:35.006Z,86.88
2019-06-07T03:52:35.538Z,87.45
2019-06-07T03:53:34.810Z,86.59
2019-06-07T03:54:35.510Z,86.88
2019-06-07T03:55:37.749Z,86.88
2019-06-07T03:56:33.746Z,86.78
2019-06-07T03:58:27.535Z,87.35
2019-06-07T03:58:44.640Z,87.64
2019-06-07T03:59:38.670Z,87.45
2019-06-07T04:00:36.657Z,87.07
2019-06-07T04:01:34.846Z,86.02
2019-06-07T04:02:33.938Z,86.88
2019-06-07T04:03:42.731Z,86.88
2019-06-07T04:04:34.985Z,86.88
2019-06-07T04:05:40.224Z,87.16
2019-06-07T04:06:36.183Z,87.16
2019-06-07T04:07:36.092Z,87.26
2019-06-07T04:08:34.460Z,87.07
2019-06-07T04:09:37.166Z,87.45
2019-06-07T04:10:51.701Z,87.35
2019-06-07T04:11:34.989Z,86.59
2019-06-07T04:12:38.643Z,87.26
2019-06-07T04:13:36.675Z,87.54
2019-06-07T04:14:35.013Z,87.16
2019-06-07T04:15:34.461Z,88.12
2019-06-07T04:16:38.008Z,87.74
2019-06-07T04:17:34.669Z,87.54
2019-06-07T04:18:35.642Z,87.93
2019-06-07T04:19:37.274Z,88.35
2019-06-07T04:20:34.570Z,87.68
2019-06-07T04:21:35.156Z,87.11
2019-06-07T04:22:38.847Z,88.26
2019-06-07T04:23:35.849Z,87.93
2019-06-07T04:24:36.598Z,87.40
2019-06-07T04:25:37.181Z,88.35
2019-06-07T04:26:35.054Z,87.97
2019-06-07T04:27:35.550Z,88.12
2019-06-07T04:29:25.984Z,88.54
2019-06-07T04:29:54.599Z,89.12
2019-06-07T04:30:36.517Z,88.54
2019-06-07T04:31:34.481Z,89.02
2019-06-07T04:32:34.335Z,88.83
2019-06-07T04:33:35.011Z,88.73
2019-06-07T04:34:37.523Z,88.54
2019-06-07T04:35:34.855Z,88.83
2019-06-07T04:36:49.039Z,88.64
2019-06-07T04:37:34.152Z,89.02
2019-06-07T04:38:39.216Z,88.92
2019-06-07T04:39:35.826Z,88.73
2019-06-07T04:40:34.342Z,88.73
2019-06-07T04:41:33.801Z,88.73
2019-06-07T04:42:36.508Z,88.45
2019-06-07T04:43:33.559Z,88.73
2019-06-07T04:44:35.026Z,88.54
2019-06-07T04:45:40.551Z,88.45
2019-06-07T04:46:35.173Z,88.64
2019-06-07T04:47:34.834Z,88.54
2019-06-07T04:48:35.350Z,88.45
2019-06-07T04:49:37.259Z,88.54
2019-06-07T04:50:34.308Z,89.40
2019-06-07T04:51:34.018Z,88.97
2019-06-07T04:52:35.982Z,90.11
2019-06-07T04:53:36.292Z,90.02
2019-06-07T04:54:37.346Z,90.59
2019-06-07T04:55:34.036Z,90.40
2019-06-07T04:56:37.810Z,89.92
2019-06-07T04:57:34.954Z,90.69
2019-06-07T04:58:33.532Z,90.78
2019-06-07T05:00:04.340Z,89.73
2019-06-07T05:00:51.839Z,90.31
2019-06-07T05:01:34.904Z,89.92
2019-06-07T05:02:36.645Z,90.25
2019-06-07T05:03:36.092Z,89.87
2019-06-07T05:04:34.969Z,90.16
2019-06-07T05:05:34.539Z,90.92
2019-06-07T05:06:36.309Z,90.54
2019-06-07T05:07:35.123Z,90.92
2019-06-07T05:08:35.592Z,90.16
2019-06-07T05:09:37.551Z,90.73
2019-06-07T05:10:35.077Z,90.64
2019-06-07T05:11:35.862Z,90.06
2019-06-07T05:12:36.064Z,90.06
2019-06-07T05:13:36.737Z,91.02
2019-06-07T05:14:34.566Z,90.64
2019-06-07T05:15:34.639Z,90.92
2019-06-07T05:16:37.946Z,90.88
2019-06-07T05:17:34.764Z,91.06
2019-06-07T05:18:36.251Z,91.30
2019-06-07T05:19:38.090Z,91.35
2019-06-07T05:20:35.565Z,91.45
2019-06-07T05:21:56.637Z,91.35
2019-06-07T05:22:34.967Z,91.83
2019-06-07T05:24:35.611Z,91.16
2019-06-07T05:25:35.698Z,90.30
2019-06-07T05:26:38.497Z,90.20
2019-06-07T05:27:35.903Z,90.68
2019-06-07T05:28:35.145Z,90.39
2019-06-07T05:29:36.759Z,90.30
2019-06-07T05:31:03.114Z,90.44
2019-06-07T05:31:36.853Z,90.06
2019-06-07T05:32:34.971Z,90.06
2019-06-07T05:33:36.627Z,90.34
2019-06-07T05:34:34.576Z,90.34
2019-06-07T05:35:35.663Z,89.77
2019-06-07T05:36:38.622Z,89.48
2019-06-07T05:37:35.696Z,89.96
2019-06-07T05:38:35.935Z,89.29
2019-06-07T05:39:36.834Z,90.44
2019-06-07T05:40:34.929Z,90.25
2019-06-07T05:41:34.249Z,90.06
2019-06-07T05:42:37.023Z,90.25
2019-06-07T05:43:34.931Z,89.87
2019-06-07T05:44:34.224Z,90.44
2019-06-07T05:45:37.695Z,90.34
2019-06-07T05:46:37.873Z,90.06
2019-06-07T05:47:38.466Z,90.58
2019-06-07T05:48:34.194Z,91.25
2019-06-07T05:49:37.998Z,90.58
2019-06-07T05:50:42.392Z,90.87
2019-06-07T05:51:34.751Z,90.67
2019-06-07T05:52:38.496Z,90.48
2019-06-07T05:53:34.725Z,90.48
2019-06-07T05:54:35.125Z,90.58
2019-06-07T05:55:35.322Z,90.87
2019-06-07T05:56:35.911Z,89.15
2019-06-07T05:57:36.380Z,88.67
2019-06-07T05:58:35.138Z,89.53
2019-06-07T05:59:37.935Z,90.10
2019-06-07T06:00:35.093Z,90.48
2019-06-07T06:01:44.998Z,90.20
2019-06-07T06:02:53.018Z,89.91
2019-06-07T06:03:35.032Z,89.53
2019-06-07T06:04:34.112Z,89.38
2019-06-07T06:05:39.399Z,89.24
2019-06-07T06:06:34.153Z,89.48
2019-06-07T06:07:35.813Z,90.53
2019-06-07T06:08:36.573Z,90.44
2019-06-07T06:09:35.319Z,90.15
2019-06-07T06:10:34.174Z,89.09
2019-06-07T06:11:46.828Z,87.61
2019-06-07T06:12:38.658Z,87.95
2019-06-07T06:13:34.448Z,88.47
2019-06-07T06:14:35.372Z,88.76
2019-06-07T06:15:46.275Z,87.99
2019-06-07T06:16:34.673Z,87.99
2019-06-07T06:17:34.237Z,89.14
2019-06-07T06:18:34.248Z,88.18
2019-06-07T06:19:34.256Z,87.51
2019-06-07T06:20:54.491Z,87.32
2019-06-07T06:21:34.272Z,86.55
2019-06-07T06:22:34.294Z,87.46
2019-06-07T06:23:34.294Z,87.41
2019-06-07T06:24:34.311Z,87.23
2019-06-07T06:25:34.701Z,87.65
2019-06-07T06:26:36.924Z,87.94
2019-06-07T06:28:36.766Z,87.84
2019-06-07T06:29:34.353Z,88.03
2019-06-07T06:30:34.360Z,87.17
2019-06-07T06:31:34.367Z,86.98
2019-06-07T06:32:49.414Z,87.27
2019-06-07T06:33:35.025Z,87.27
2019-06-07T06:34:34.398Z,86.79
2019-06-07T06:35:34.408Z,87.65
2019-06-07T06:36:34.417Z,87.55
2019-06-07T06:37:34.431Z,85.74
2019-06-07T06:38:34.438Z,86.41
2019-06-07T06:39:34.450Z,86.25
2019-06-07T06:40:34.461Z,86.83
2019-06-07T06:41:48.473Z,86.16
2019-06-07T06:42:34.476Z,86.25
2019-06-07T06:43:34.488Z,86.74
2019-06-07T06:44:34.542Z,86.74
2019-06-07T06:45:34.538Z,86.64
2019-06-07T06:46:42.150Z,86.07
2019-06-07T06:47:34.528Z,85.49
2019-06-07T06:48:34.536Z,86.07
2019-06-07T06:49:34.544Z,86.30
2019-06-07T06:50:34.553Z,86.88
2019-06-07T06:51:34.569Z,86.30
2019-06-07T06:52:34.573Z,85.05
2019-06-07T06:53:34.583Z,85.72
2019-06-07T06:54:40.841Z,86.11
2019-06-07T06:55:34.604Z,86.30
2019-06-07T06:56:34.612Z,86.21
2019-06-07T06:57:34.620Z,85.44
2019-06-07T06:59:18.877Z,85.63
2019-06-07T06:59:39.155Z,85.77
2019-06-07T07:00:48.390Z,86.15
2019-06-07T07:01:34.665Z,86.34
2019-06-07T07:02:34.677Z,86.25
2019-06-07T07:03:57.306Z,84.91
2019-06-07T07:04:34.695Z,83.94
2019-06-07T07:05:34.705Z,84.71
2019-06-07T07:06:34.714Z,85.38
2019-06-07T07:07:34.727Z,85.38
2019-06-07T07:08:34.744Z,84.91
2019-06-07T07:09:34.747Z,84.91
2019-06-07T07:10:34.757Z,85.00
2019-06-07T07:11:52.268Z,85.25
2019-06-07T07:12:34.774Z,84.77
2019-06-07T07:13:34.788Z,84.58
2019-06-07T07:14:34.795Z,85.05
2019-06-07T07:15:34.808Z,85.72
2019-06-07T07:16:34.819Z,85.15
2019-06-07T07:17:50.495Z,85.82
2019-06-07T07:18:34.840Z,86.11
2019-06-07T07:19:34.847Z,86.40
2019-06-07T07:20:34.941Z,86.88
2019-06-07T07:21:34.868Z,85.88
2019-06-07T07:22:34.878Z,86.25
2019-06-07T07:23:34.889Z,87.41
2019-06-07T07:24:34.893Z,87.79
2019-06-07T07:25:34.908Z,87.79
2019-06-07T07:26:34.920Z,87.93
2019-06-07T07:27:34.925Z,87.60
2019-06-07T07:28:34.942Z,87.74
2019-06-07T07:29:34.981Z,88.79
2019-06-07T07:30:37.127Z,88.22
2019-06-07T07:31:34.970Z,89.32
2019-06-07T07:32:34.976Z,87.50
2019-06-07T07:34:21.081Z,87.84
2019-06-07T07:34:37.249Z,88.89
2019-06-07T07:35:35.008Z,88.70
2019-06-07T07:36:39.520Z,87.93
2019-06-07T07:37:35.040Z,87.93
2019-06-07T07:38:35.039Z,88.89
2019-06-07T07:39:35.044Z,87.84
2019-06-07T07:40:56.987Z,87.84
2019-06-07T07:41:35.067Z,88.02
2019-06-07T07:42:35.077Z,88.41
2019-06-07T07:43:35.088Z,88.98
2019-06-07T07:44:35.096Z,88.70
2019-06-07T07:45:35.108Z,88.79
2019-06-07T07:46:35.521Z,87.55
2019-06-07T07:47:35.139Z,88.02
2019-06-07T07:48:35.133Z,89.37
2019-06-07T07:49:35.147Z,88.98
2019-06-07T07:50:35.161Z,88.70
2019-06-07T07:51:35.168Z,89.75
2019-06-07T07:52:35.179Z,89.85
2019-06-07T07:53:48.596Z,89.75
2019-06-07T07:54:35.199Z,89.56
2019-06-07T07:55:35.208Z,88.79
2019-06-07T07:56:35.218Z,88.41
2019-06-07T07:57:35.226Z,88.60
2019-06-07T07:58:35.243Z,89.85
2019-06-07T07:59:43.889Z,89.85
2019-06-07T08:01:00.353Z,90.71
2019-06-07T08:01:35.269Z,90.33
2019-06-07T08:02:35.279Z,89.56
2019-06-07T08:03:35.289Z,90.47
2019-06-07T08:05:12.781Z,90.18
2019-06-07T08:05:43.080Z,89.32
2019-06-07T08:06:35.317Z,90.37
2019-06-07T08:07:35.331Z,90.18
2019-06-07T08:08:35.337Z,88.26
2019-06-07T08:09:35.350Z,88.07
2019-06-07T08:10:35.374Z,88.74
2019-06-07T08:11:35.367Z,87.98
2019-06-07T08:12:55.133Z,89.41
2019-06-07T08:13:35.386Z,88.74
2019-06-07T08:14:35.401Z,89.22
2019-06-07T08:15:35.408Z,88.74
2019-06-07T08:16:35.421Z,88.74
2019-06-07T08:17:35.430Z,87.68
2019-06-07T08:18:35.564Z,88.65
2019-06-07T08:19:35.450Z,88.65
2019-06-07T08:20:35.460Z,89.03
2019-06-07T08:21:35.470Z,88.93
2019-06-07T08:22:35.479Z,89.17
2019-06-07T08:23:35.491Z,88.02
2019-06-07T08:24:35.497Z,88.02
2019-06-07T08:25:35.510Z,87.73
2019-06-07T08:26:35.522Z,87.25
2019-06-07T08:27:35.531Z,86.96
2019-06-07T08:28:35.541Z,87.35
2019-06-07T08:29:44.861Z,88.98
2019-06-07T08:30:50.182Z,88.88
2019-06-07T08:31:35.572Z,88.69
2019-06-07T08:32:35.582Z,88.98
2019-06-07T08:33:35.594Z,88.45
2019-06-07T08:34:35.609Z,89.22
2019-06-07T08:36:42.074Z,88.06
2019-06-07T08:38:13.909Z,88.64
2019-06-07T08:38:47.423Z,88.35
2019-06-07T08:39:35.651Z,87.58
2019-06-07T08:40:35.665Z,88.16
2019-06-07T08:41:35.675Z,88.16
2019-06-07T08:42:37.321Z,87.49
2019-06-07T08:43:35.694Z,87.01
2019-06-07T08:44:35.705Z,87.01
2019-06-07T08:45:35.718Z,86.85
2019-06-07T08:46:35.726Z,86.95
2019-06-07T08:47:35.741Z,87.62
2019-06-07T08:48:35.747Z,88.39
2019-06-07T08:49:35.759Z,86.85
2019-06-07T08:50:35.790Z,86.57
2019-06-07T08:51:35.780Z,86.57
2019-06-07T08:52:35.792Z,87.53
2019-06-07T08:53:35.800Z,87.43
2019-06-07T08:54:35.809Z,87.24
2019-06-07T08:55:35.820Z,87.82
2019-06-07T08:56:35.829Z,86.18
2019-06-07T08:57:35.841Z,86.38
2019-06-07T08:58:35.852Z,85.51
2019-06-07T08:59:35.866Z,85.80
2019-06-07T09:00:46.921Z,85.71
2019-06-07T09:01:35.890Z,86.61
2019-06-07T09:02:35.893Z,86.52
2019-06-07T09:03:35.907Z,87.57
2019-06-07T09:04:35.914Z,86.13
2019-06-07T09:05:35.925Z,87.19
2019-06-07T09:07:35.947Z,88.34
2019-06-07T09:08:35.962Z,86.52
2019-06-07T09:09:36.005Z,86.90
2019-06-07T09:10:35.984Z,87.09
2019-06-07T09:11:35.994Z,87.76
2019-06-07T09:12:35.999Z,86.13
2019-06-07T09:13:36.012Z,86.08
2019-06-07T09:14:58.180Z,86.61
2019-06-07T09:15:36.033Z,87.90
2019-06-07T09:16:43.779Z,87.23
2019-06-07T09:18:43.565Z,85.88
2019-06-07T09:19:40.547Z,85.50
2019-06-07T09:21:44.560Z,86.56
2019-06-07T09:22:44.562Z,86.85
2019-06-07T09:24:48.564Z,86.94
2019-06-07T09:25:57.421Z,87.33
2019-06-07T09:27:42.001Z,87.81
2019-06-07T09:28:42.000Z,88.29
2019-06-07T09:30:46.538Z,88.19
2019-06-07T09:31:53.332Z,86.85
2019-06-07T09:33:52.012Z,86.41
2019-06-07T09:34:52.020Z,86.22
2019-06-07T09:36:58.128Z,86.89
2019-06-07T09:38:09.055Z,86.41
2019-06-07T09:40:17.430Z,88.04
2019-06-07T09:41:03.172Z,86.99
2019-06-07T09:43:54.842Z,85.44
2019-06-07T09:44:21.575Z,85.58
2019-06-07T09:46:14.751Z,86.31
2019-06-07T09:47:30.703Z,86.26
2019-06-07T09:49:28.932Z,84.62
2019-06-07T09:50:14.080Z,84.81
2019-06-07T09:51:19.655Z,85.78
2019-06-07T09:52:14.108Z,86.16
2019-06-07T09:53:22.795Z,85.58
2019-06-07T09:55:02.652Z,85.87
2019-06-07T09:55:23.752Z,86.16
2019-06-07T09:56:14.141Z,85.68
2019-06-07T09:57:17.311Z,85.97
2019-06-07T09:59:14.182Z,86.55
2019-06-07T10:00:38.651Z,85.68
2019-06-07T10:01:14.326Z,86.65
2019-06-07T10:02:14.218Z,87.17
2019-06-07T10:03:21.303Z,85.43
2019-06-07T10:04:30.403Z,86.01
2019-06-07T10:05:14.938Z,86.21
2019-06-07T10:06:14.258Z,85.63
2019-06-07T10:07:30.646Z,85.34
2019-06-07T10:09:14.959Z,84.76
2019-06-07T10:11:14.313Z,81.91
2019-06-07T10:12:14.360Z,82.01
2019-06-07T10:13:14.338Z,80.66
2019-06-07T10:14:14.347Z,81.72
2019-06-07T10:15:14.364Z,81.62
2019-06-07T10:16:14.370Z,80.37
2019-06-07T10:17:14.386Z,80.85
2019-06-07T10:18:14.397Z,82.78
2019-06-07T10:19:14.405Z,83.55
2019-06-07T10:20:14.418Z,83.26
2019-06-07T10:21:15.358Z,83.55
2019-06-07T10:22:14.443Z,83.26
2019-06-07T10:23:14.454Z,83.36
2019-06-07T10:24:14.480Z,83.55
2019-06-07T10:25:14.475Z,82.20
2019-06-07T10:26:14.494Z,80.76
2019-06-07T10:27:14.497Z,80.41
2019-06-07T10:28:14.515Z,81.85
2019-06-07T10:29:14.526Z,83.50
2019-06-07T10:30:14.574Z,83.98
2019-06-07T10:31:14.545Z,83.50
2019-06-07T10:32:14.560Z,83.69
2019-06-07T10:33:14.569Z,83.50
2019-06-07T10:34:14.590Z,82.34
2019-06-07T10:35:16.479Z,80.79
2019-06-07T10:36:14.605Z,79.29
2019-06-07T10:37:15.829Z,78.71
2019-06-07T10:38:14.630Z,77.84
2019-06-07T10:39:14.642Z,79.00
2019-06-07T10:40:14.688Z,79.77
2019-06-07T10:41:14.664Z,80.06
2019-06-07T10:42:14.679Z,81.32
2019-06-07T10:43:14.703Z,82.57
2019-06-07T10:44:14.701Z,79.39
2019-06-07T10:45:14.712Z,79.77
2019-06-07T10:46:14.724Z,79.68
2019-06-07T10:47:14.737Z,80.74
2019-06-07T10:48:14.778Z,79.39
2019-06-07T10:49:14.780Z,79.49
2019-06-07T10:50:14.771Z,79.19
2019-06-07T10:51:15.043Z,78.36
2019-06-07T10:52:14.794Z,78.66
2019-06-07T10:53:14.811Z,79.24
2019-06-07T10:54:24.588Z,79.81
2019-06-07T10:55:14.830Z,80.87
2019-06-07T10:56:14.846Z,78.17
2019-06-07T10:57:16.217Z,77.69
2019-06-07T10:58:14.874Z,79.72
2019-06-07T10:59:14.881Z,80.53
2019-06-07T11:00:14.899Z,78.50
2019-06-07T11:01:14.905Z,76.86
2019-06-07T11:02:14.920Z,77.63
2019-06-07T11:03:14.927Z,77.53
2019-06-07T11:04:14.939Z,79.41
2019-06-07T11:05:14.954Z,77.28
2019-06-07T11:06:14.967Z,77.57
2019-06-07T11:07:14.972Z,77.09
2019-06-07T11:08:15.124Z,75.84
2019-06-07T11:09:15.022Z,76.61
2019-06-07T11:10:19.060Z,77.09
2019-06-07T11:11:15.578Z,77.86
2019-06-07T11:12:15.405Z,78.48
2019-06-07T11:13:15.055Z,76.45
2019-06-07T11:14:15.067Z,77.22
2019-06-07T11:15:15.122Z,73.55
2019-06-07T11:16:15.721Z,72.39
2019-06-07T11:17:15.800Z,74.42
2019-06-07T11:18:15.118Z,74.85
2019-06-07T11:19:17.810Z,75.13
2019-06-07T11:20:15.141Z,74.07
2019-06-07T11:21:15.182Z,75.04
2019-06-07T11:22:15.170Z,73.72
2019-06-07T11:23:15.179Z,73.33
2019-06-07T11:24:18.374Z,73.24
2019-06-07T11:25:15.208Z,73.08
2019-06-07T11:26:15.216Z,75.60
2019-06-07T11:27:16.383Z,73.37
2019-06-07T11:28:15.245Z,72.44
2019-06-07T11:29:15.254Z,74.57
2019-06-07T11:30:15.268Z,72.28
2019-06-07T11:31:15.303Z,70.09
2019-06-07T11:32:15.302Z,68.02
2019-06-07T11:33:16.495Z,66.89
2019-06-07T11:34:15.330Z,64.43
2019-06-07T11:35:15.573Z,64.69
2019-06-07T11:36:16.097Z,62.99
2019-06-07T11:37:16.151Z,61.89
2019-06-07T11:38:15.390Z,60.58
2019-06-07T11:39:15.409Z,59.86
2019-06-07T11:40:31.943Z,61.09
2019-06-07T11:41:15.935Z,58.31
2019-06-07T11:42:15.460Z,57.03
2019-06-07T11:43:15.478Z,54.31
2019-06-07T11:44:15.499Z,58.02
2019-06-07T11:45:15.593Z,51.30
2019-06-07T11:46:15.534Z,49.95
2019-06-07T11:47:15.559Z,47.53
2019-06-07T11:48:15.615Z,48.44
2019-06-07T11:49:20.304Z,48.37
2019-06-07T11:50:15.866Z,47.70
2019-06-07T11:51:15.638Z,47.55
2019-06-07T11:52:15.900Z,48.36
2019-06-07T11:53:15.680Z,46.00
2019-06-07T11:54:16.183Z,44.34
2019-06-07T11:55:16.030Z,45.25
2019-06-07T11:56:16.094Z,45.27
2019-06-07T11:57:17.326Z,47.27
2019-06-07T11:58:19.716Z,42.32
2019-06-07T11:59:15.816Z,41.55
2019-06-07T12:00:16.440Z,42.86
2019-06-07T12:01:17.159Z,43.97
2019-06-07T12:02:15.881Z,41.22
2019-06-07T12:03:16.022Z,42.50
2019-06-07T12:04:33.718Z,42.72
2019-06-07T12:05:18.373Z,40.74
2019-06-07T12:06:16.408Z,39.06
2019-06-07T12:07:17.656Z,42.72
2019-06-07T12:08:16.150Z,41.06
2019-06-07T12:09:16.800Z,40.78
2019-06-07T12:10:20.463Z,40.98
2019-06-07T12:11:16.536Z,37.52
2019-06-07T12:12:16.618Z,38.14
2019-06-07T12:13:17.450Z,39.23
2019-06-07T12:14:16.851Z,38.26
2019-06-07T12:15:17.302Z,38.75
2019-06-07T12:16:17.383Z,38.87
2019-06-07T12:17:17.540Z,36.88
2019-06-07T12:18:17.345Z,37.38
2019-06-07T12:19:17.580Z,36.38
2019-06-07T12:20:17.419Z,36.70
2019-06-07T12:21:17.948Z,34.91
2019-06-07T12:22:16.366Z,34.71
2019-06-07T12:23:16.386Z,36.50
2019-06-07T12:24:16.415Z,34.52
2019-06-07T12:25:22.569Z,35.22
2019-06-07T12:26:16.658Z,36.22
2019-06-07T12:27:16.759Z,34.84
2019-06-07T12:28:16.826Z,36.93
2019-06-07T12:29:17.162Z,34.96
2019-06-07T12:30:23.476Z,37.35
2019-06-07T12:31:17.149Z,33.47
2019-06-07T12:32:17.504Z,33.17
2019-06-07T12:33:17.711Z,31.59
2019-06-07T12:34:17.458Z,32.09
2019-06-07T12:35:17.763Z,30.69
2019-06-07T12:36:17.772Z,31.39
2019-06-07T12:37:19.330Z,29.60
2019-06-07T12:38:18.531Z,32.18
2019-06-07T12:39:17.975Z,34.00
2019-06-07T12:40:27.661Z,35.19
2019-06-07T12:41:16.857Z,35.11
2019-06-07T12:42:16.881Z,31.92
2019-06-07T12:43:16.904Z,33.63
2019-06-07T12:44:16.935Z,32.23
2019-06-07T12:45:36.715Z,31.15
2019-06-07T12:46:21.099Z,33.25
2019-06-07T12:47:17.002Z,30.95
2019-06-07T12:48:20.767Z,30.57
2019-06-07T12:49:17.112Z,33.75
2019-06-07T12:50:17.505Z,32.86
2019-06-07T12:51:17.239Z,30.57
2019-06-07T12:52:19.381Z,30.07
2019-06-07T12:53:17.891Z,29.77
2019-06-07T12:54:17.579Z,30.38
2019-06-07T12:55:18.184Z,33.38
2019-06-07T12:56:17.763Z,32.88
2019-06-07T12:57:17.970Z,33.09
2019-06-07T12:58:22.033Z,31.70
2019-06-07T12:59:17.964Z,29.90
2019-06-07T13:00:18.204Z,30.10
2019-06-07T13:01:18.242Z,29.71
2019-06-07T13:02:19.991Z,30.01
2019-06-07T13:03:18.405Z,29.91
2019-06-07T13:04:18.481Z,28.91
2019-06-07T13:05:17.860Z,30.52
2019-06-07T13:06:17.792Z,28.62
2019-06-07T13:07:18.087Z,28.72
2019-06-07T13:08:17.679Z,28.31
2019-06-07T13:09:17.762Z,28.69
2019-06-07T13:10:17.964Z,28.18
2019-06-07T13:11:24.536Z,30.49
2019-06-07T13:12:17.645Z,30.40
2019-06-07T13:13:18.439Z,28.71